sensor_id;sensor_type;location;lat;lon;timestamp;P1;durP1;ratioP1;P2;durP2;ratioP2
45420;SDS011;55462;47.042;8.292;2024-03-08T00:00:13;9.20;;;8.33;;
45420;SDS011;55462;47.042;8.292;2024-03-08T00:02:46;9.40;;;8.20;;
45420;SDS011;55462;47.042;8.292;2024-03-08T00:05:12;8.70;;;7.90;;
45420;SDS011;55462;47.042;8.292;2024-03-08T00:07:38;9.77;;;8.43;;
45420;SDS011;55462;47.042;8.292;2024-03-08T00:10:05;9.77;;;8.77;;
45420;SDS011;55462;47.042;8.292;2024-03-08T00:12:32;9.00;;;8.13;;
45420;SDS011;55462;47.042;8.292;2024-03-08T00:14:57;9.17;;;8.13;;
45420;SDS011;55462;47.042;8.292;2024-03-08T00:17:23;7.27;;;6.67;;
45420;SDS011;55462;47.042;8.292;2024-03-08T00:19:48;7.57;;;6.87;;
45420;SDS011;55462;47.042;8.292;2024-03-08T00:22:15;7.47;;;6.87;;
45420;SDS011;55462;47.042;8.292;2024-03-08T00:24:41;6.70;;;6.20;;
45420;SDS011;55462;47.042;8.292;2024-03-08T00:27:06;7.80;;;7.10;;
45420;SDS011;55462;47.042;8.292;2024-03-08T00:29:31;8.70;;;7.90;;
45420;SDS011;55462;47.042;8.292;2024-03-08T00:31:57;8.80;;;7.93;;
45420;SDS011;55462;47.042;8.292;2024-03-08T00:34:22;8.00;;;7.20;;
45420;SDS011;55462;47.042;8.292;2024-03-08T00:36:48;8.73;;;7.87;;
45420;SDS011;55462;47.042;8.292;2024-03-08T00:39:14;9.20;;;8.30;;
45420;SDS011;55462;47.042;8.292;2024-03-08T00:41:39;8.70;;;7.67;;
45420;SDS011;55462;47.042;8.292;2024-03-08T00:44:04;8.53;;;7.73;;
45420;SDS011;55462;47.042;8.292;2024-03-08T00:46:30;9.13;;;8.33;;
45420;SDS011;55462;47.042;8.292;2024-03-08T00:48:56;8.80;;;8.00;;
45420;SDS011;55462;47.042;8.292;2024-03-08T00:51:21;8.00;;;7.30;;
45420;SDS011;55462;47.042;8.292;2024-03-08T00:53:47;9.37;;;8.23;;
45420;SDS011;55462;47.042;8.292;2024-03-08T00:56:12;9.00;;;8.20;;
45420;SDS011;55462;47.042;8.292;2024-03-08T00:58:37;8.47;;;7.67;;
45420;SDS011;55462;47.042;8.292;2024-03-08T01:01:03;8.33;;;7.57;;
45420;SDS011;55462;47.042;8.292;2024-03-08T01:03:29;10.07;;;8.00;;
45420;SDS011;55462;47.042;8.292;2024-03-08T01:05:56;9.40;;;7.83;;
45420;SDS011;55462;47.042;8.292;2024-03-08T01:08:22;8.37;;;7.67;;
45420;SDS011;55462;47.042;8.292;2024-03-08T01:10:48;8.37;;;7.57;;
45420;SDS011;55462;47.042;8.292;2024-03-08T01:13:15;8.33;;;7.53;;
45420;SDS011;55462;47.042;8.292;2024-03-08T01:15:41;8.70;;;7.77;;
45420;SDS011;55462;47.042;8.292;2024-03-08T01:18:06;8.40;;;7.60;;
45420;SDS011;55462;47.042;8.292;2024-03-08T01:20:31;8.63;;;7.83;;
45420;SDS011;55462;47.042;8.292;2024-03-08T01:22:57;9.67;;;8.77;;
45420;SDS011;55462;47.042;8.292;2024-03-08T01:25:22;8.90;;;8.10;;
45420;SDS011;55462;47.042;8.292;2024-03-08T01:27:48;9.20;;;8.30;;
45420;SDS011;55462;47.042;8.292;2024-03-08T01:30:13;9.40;;;8.50;;
45420;SDS011;55462;47.042;8.292;2024-03-08T01:32:42;8.77;;;7.97;;
45420;SDS011;55462;47.042;8.292;2024-03-08T01:35:09;9.13;;;8.23;;
45420;SDS011;55462;47.042;8.292;2024-03-08T01:37:35;8.63;;;7.83;;
45420;SDS011;55462;47.042;8.292;2024-03-08T01:40:00;10.07;;;9.10;;
45420;SDS011;55462;47.042;8.292;2024-03-08T01:42:26;10.83;;;9.73;;
45420;SDS011;55462;47.042;8.292;2024-03-08T01:44:51;10.77;;;9.77;;
45420;SDS011;55462;47.042;8.292;2024-03-08T01:47:16;9.80;;;8.90;;
45420;SDS011;55462;47.042;8.292;2024-03-08T01:49:42;10.40;;;8.77;;
45420;SDS011;55462;47.042;8.292;2024-03-08T01:52:08;10.03;;;9.13;;
45420;SDS011;55462;47.042;8.292;2024-03-08T01:54:34;10.13;;;9.13;;
45420;SDS011;55462;47.042;8.292;2024-03-08T01:57:00;10.00;;;9.00;;
45420;SDS011;55462;47.042;8.292;2024-03-08T01:59:25;9.20;;;8.30;;
45420;SDS011;55462;47.042;8.292;2024-03-08T02:01:52;8.80;;;7.97;;
45420;SDS011;55462;47.042;8.292;2024-03-08T02:04:20;9.70;;;8.70;;
45420;SDS011;55462;47.042;8.292;2024-03-08T02:06:46;8.77;;;7.83;;
45420;SDS011;55462;47.042;8.292;2024-03-08T02:09:13;8.30;;;7.50;;
45420;SDS011;55462;47.042;8.292;2024-03-08T02:11:40;9.50;;;8.13;;
45420;SDS011;55462;47.042;8.292;2024-03-08T02:14:06;9.53;;;8.63;;
45420;SDS011;55462;47.042;8.292;2024-03-08T02:16:31;10.73;;;9.07;;
45420;SDS011;55462;47.042;8.292;2024-03-08T02:18:58;9.00;;;8.03;;
45420;SDS011;55462;47.042;8.292;2024-03-08T02:21:23;9.00;;;8.20;;
45420;SDS011;55462;47.042;8.292;2024-03-08T02:23:49;8.60;;;7.80;;
45420;SDS011;55462;47.042;8.292;2024-03-08T02:26:17;8.90;;;8.07;;
45420;SDS011;55462;47.042;8.292;2024-03-08T02:28:43;8.67;;;7.77;;
45420;SDS011;55462;47.042;8.292;2024-03-08T02:31:09;8.43;;;7.63;;
45420;SDS011;55462;47.042;8.292;2024-03-08T02:33:34;9.30;;;8.40;;
45420;SDS011;55462;47.042;8.292;2024-03-08T02:36:00;7.97;;;7.27;;
45420;SDS011;55462;47.042;8.292;2024-03-08T02:38:25;8.03;;;7.23;;
45420;SDS011;55462;47.042;8.292;2024-03-08T02:40:51;8.27;;;7.57;;
45420;SDS011;55462;47.042;8.292;2024-03-08T02:43:18;9.20;;;8.30;;
45420;SDS011;55462;47.042;8.292;2024-03-08T02:45:45;8.53;;;7.83;;
45420;SDS011;55462;47.042;8.292;2024-03-08T02:48:11;8.50;;;7.67;;
45420;SDS011;55462;47.042;8.292;2024-03-08T02:50:36;9.43;;;8.47;;
45420;SDS011;55462;47.042;8.292;2024-03-08T02:53:02;8.63;;;7.93;;
45420;SDS011;55462;47.042;8.292;2024-03-08T02:55:28;10.30;;;9.30;;
45420;SDS011;55462;47.042;8.292;2024-03-08T02:57:54;9.43;;;8.53;;
45420;SDS011;55462;47.042;8.292;2024-03-08T03:00:20;9.33;;;8.47;;
45420;SDS011;55462;47.042;8.292;2024-03-08T03:02:48;8.77;;;7.97;;
45420;SDS011;55462;47.042;8.292;2024-03-08T03:05:17;8.80;;;8.00;;
45420;SDS011;55462;47.042;8.292;2024-03-08T03:07:42;8.40;;;7.60;;
45420;SDS011;55462;47.042;8.292;2024-03-08T03:10:08;9.73;;;8.83;;
45420;SDS011;55462;47.042;8.292;2024-03-08T03:12:33;10.13;;;9.10;;
45420;SDS011;55462;47.042;8.292;2024-03-08T03:14:58;9.47;;;8.57;;
45420;SDS011;55462;47.042;8.292;2024-03-08T03:17:24;9.77;;;8.87;;
45420;SDS011;55462;47.042;8.292;2024-03-08T03:19:50;9.90;;;9.00;;
45420;SDS011;55462;47.042;8.292;2024-03-08T03:22:16;9.30;;;8.40;;
45420;SDS011;55462;47.042;8.292;2024-03-08T03:24:43;8.67;;;7.77;;
45420;SDS011;55462;47.042;8.292;2024-03-08T03:27:08;7.87;;;7.17;;
45420;SDS011;55462;47.042;8.292;2024-03-08T03:29:38;9.10;;;7.40;;
45420;SDS011;55462;47.042;8.292;2024-03-08T03:32:04;7.77;;;7.03;;
45420;SDS011;55462;47.042;8.292;2024-03-08T03:34:30;7.10;;;6.50;;
45420;SDS011;55462;47.042;8.292;2024-03-08T03:36:55;8.00;;;7.20;;
45420;SDS011;55462;47.042;8.292;2024-03-08T03:39:21;8.50;;;7.67;;
45420;SDS011;55462;47.042;8.292;2024-03-08T03:41:47;7.53;;;6.73;;
45420;SDS011;55462;47.042;8.292;2024-03-08T03:44:16;9.37;;;7.60;;
45420;SDS011;55462;47.042;8.292;2024-03-08T03:46:42;8.17;;;7.17;;
45420;SDS011;55462;47.042;8.292;2024-03-08T03:49:10;8.70;;;7.80;;
45420;SDS011;55462;47.042;8.292;2024-03-08T03:51:35;8.60;;;7.70;;
45420;SDS011;55462;47.042;8.292;2024-03-08T03:54:00;10.70;;;8.80;;
45420;SDS011;55462;47.042;8.292;2024-03-08T03:56:28;10.13;;;8.23;;
45420;SDS011;55462;47.042;8.292;2024-03-08T03:58:54;9.87;;;8.43;;
45420;SDS011;55462;47.042;8.292;2024-03-08T04:01:19;11.17;;;8.70;;
45420;SDS011;55462;47.042;8.292;2024-03-08T04:03:44;11.97;;;9.20;;
45420;SDS011;55462;47.042;8.292;2024-03-08T04:06:10;10.73;;;8.67;;
45420;SDS011;55462;47.042;8.292;2024-03-08T04:08:35;11.00;;;8.80;;
45420;SDS011;55462;47.042;8.292;2024-03-08T04:11:01;10.97;;;8.73;;
45420;SDS011;55462;47.042;8.292;2024-03-08T04:13:26;12.13;;;8.90;;
45420;SDS011;55462;47.042;8.292;2024-03-08T04:15:52;8.83;;;7.30;;
45420;SDS011;55462;47.042;8.292;2024-03-08T04:18:17;8.23;;;7.37;;
45420;SDS011;55462;47.042;8.292;2024-03-08T04:20:44;8.97;;;7.50;;
45420;SDS011;55462;47.042;8.292;2024-03-08T04:23:09;10.83;;;8.93;;
45420;SDS011;55462;47.042;8.292;2024-03-08T04:25:34;9.50;;;8.27;;
45420;SDS011;55462;47.042;8.292;2024-03-08T04:28:00;11.00;;;9.03;;
45420;SDS011;55462;47.042;8.292;2024-03-08T04:30:25;11.10;;;8.70;;
45420;SDS011;55462;47.042;8.292;2024-03-08T04:32:53;10.43;;;8.67;;
45420;SDS011;55462;47.042;8.292;2024-03-08T04:35:18;12.37;;;8.63;;
45420;SDS011;55462;47.042;8.292;2024-03-08T04:37:45;11.43;;;8.80;;
45420;SDS011;55462;47.042;8.292;2024-03-08T04:40:10;11.10;;;9.37;;
45420;SDS011;55462;47.042;8.292;2024-03-08T04:42:36;10.03;;;8.93;;
45420;SDS011;55462;47.042;8.292;2024-03-08T04:45:02;10.80;;;8.97;;
45420;SDS011;55462;47.042;8.292;2024-03-08T04:47:29;10.63;;;9.07;;
45420;SDS011;55462;47.042;8.292;2024-03-08T04:49:54;9.57;;;8.60;;
45420;SDS011;55462;47.042;8.292;2024-03-08T04:52:21;10.40;;;9.30;;
45420;SDS011;55462;47.042;8.292;2024-03-08T04:54:47;10.40;;;9.30;;
45420;SDS011;55462;47.042;8.292;2024-03-08T04:57:12;10.03;;;9.03;;
45420;SDS011;55462;47.042;8.292;2024-03-08T04:59:37;10.57;;;9.50;;
45420;SDS011;55462;47.042;8.292;2024-03-08T05:02:03;9.67;;;8.63;;
45420;SDS011;55462;47.042;8.292;2024-03-08T05:04:28;10.37;;;9.10;;
45420;SDS011;55462;47.042;8.292;2024-03-08T05:06:54;9.23;;;8.27;;
45420;SDS011;55462;47.042;8.292;2024-03-08T05:09:19;9.80;;;8.80;;
45420;SDS011;55462;47.042;8.292;2024-03-08T05:11:45;9.17;;;7.87;;
45420;SDS011;55462;47.042;8.292;2024-03-08T05:14:11;10.17;;;8.33;;
45420;SDS011;55462;47.042;8.292;2024-03-08T05:16:41;9.90;;;8.87;;
45420;SDS011;55462;47.042;8.292;2024-03-08T05:19:07;10.67;;;8.63;;
45420;SDS011;55462;47.042;8.292;2024-03-08T05:21:32;11.50;;;9.00;;
45420;SDS011;55462;47.042;8.292;2024-03-08T05:23:58;14.63;;;10.80;;
45420;SDS011;55462;47.042;8.292;2024-03-08T05:26:23;13.90;;;10.63;;
45420;SDS011;55462;47.042;8.292;2024-03-08T05:28:48;12.67;;;10.70;;
45420;SDS011;55462;47.042;8.292;2024-03-08T05:31:20;11.80;;;9.80;;
45420;SDS011;55462;47.042;8.292;2024-03-08T05:33:49;12.90;;;10.93;;
45420;SDS011;55462;47.042;8.292;2024-03-08T05:36:14;13.80;;;10.90;;
45420;SDS011;55462;47.042;8.292;2024-03-08T05:38:41;18.23;;;12.13;;
45420;SDS011;55462;47.042;8.292;2024-03-08T05:41:08;13.70;;;10.27;;
45420;SDS011;55462;47.042;8.292;2024-03-08T05:43:34;16.53;;;11.33;;
45420;SDS011;55462;47.042;8.292;2024-03-08T05:45:59;17.43;;;12.07;;
45420;SDS011;55462;47.042;8.292;2024-03-08T05:48:24;18.13;;;11.80;;
45420;SDS011;55462;47.042;8.292;2024-03-08T05:50:50;17.40;;;11.97;;
45420;SDS011;55462;47.042;8.292;2024-03-08T05:53:15;15.80;;;10.93;;
45420;SDS011;55462;47.042;8.292;2024-03-08T05:55:41;14.50;;;11.03;;
45420;SDS011;55462;47.042;8.292;2024-03-08T05:58:06;15.27;;;11.00;;
45420;SDS011;55462;47.042;8.292;2024-03-08T06:00:33;16.70;;;11.43;;
45420;SDS011;55462;47.042;8.292;2024-03-08T06:02:58;15.73;;;11.53;;
45420;SDS011;55462;47.042;8.292;2024-03-08T06:05:24;13.03;;;10.50;;
45420;SDS011;55462;47.042;8.292;2024-03-08T06:07:49;15.90;;;11.43;;
45420;SDS011;55462;47.042;8.292;2024-03-08T06:10:14;16.13;;;11.43;;
45420;SDS011;55462;47.042;8.292;2024-03-08T06:12:42;14.13;;;10.60;;
45420;SDS011;55462;47.042;8.292;2024-03-08T06:15:08;14.33;;;10.80;;
45420;SDS011;55462;47.042;8.292;2024-03-08T06:17:35;16.97;;;11.77;;
45420;SDS011;55462;47.042;8.292;2024-03-08T06:20:03;22.57;;;14.23;;
45420;SDS011;55462;47.042;8.292;2024-03-08T06:22:35;22.23;;;14.50;;
45420;SDS011;55462;47.042;8.292;2024-03-08T06:25:00;23.30;;;15.63;;
45420;SDS011;55462;47.042;8.292;2024-03-08T06:27:26;20.83;;;15.57;;
45420;SDS011;55462;47.042;8.292;2024-03-08T06:29:51;22.93;;;16.40;;
45420;SDS011;55462;47.042;8.292;2024-03-08T06:32:16;23.47;;;16.17;;
45420;SDS011;55462;47.042;8.292;2024-03-08T06:34:42;24.47;;;15.93;;
45420;SDS011;55462;47.042;8.292;2024-03-08T06:37:07;20.17;;;14.83;;
45420;SDS011;55462;47.042;8.292;2024-03-08T06:39:32;19.10;;;13.53;;
45420;SDS011;55462;47.042;8.292;2024-03-08T06:41:59;22.13;;;15.50;;
45420;SDS011;55462;47.042;8.292;2024-03-08T06:44:25;20.67;;;15.03;;
45420;SDS011;55462;47.042;8.292;2024-03-08T06:46:50;20.50;;;14.70;;
45420;SDS011;55462;47.042;8.292;2024-03-08T06:49:16;22.03;;;15.83;;
45420;SDS011;55462;47.042;8.292;2024-03-08T06:51:41;23.97;;;14.70;;
45420;SDS011;55462;47.042;8.292;2024-03-08T06:54:06;23.70;;;15.40;;
45420;SDS011;55462;47.042;8.292;2024-03-08T06:56:34;18.47;;;13.47;;
45420;SDS011;55462;47.042;8.292;2024-03-08T06:58:59;21.50;;;13.10;;
45420;SDS011;55462;47.042;8.292;2024-03-08T07:01:25;19.63;;;13.63;;
45420;SDS011;55462;47.042;8.292;2024-03-08T07:03:50;19.97;;;13.83;;
45420;SDS011;55462;47.042;8.292;2024-03-08T07:06:17;21.77;;;14.43;;
45420;SDS011;55462;47.042;8.292;2024-03-08T07:08:44;19.40;;;13.13;;
45420;SDS011;55462;47.042;8.292;2024-03-08T07:11:10;18.40;;;12.70;;
45420;SDS011;55462;47.042;8.292;2024-03-08T07:13:36;19.20;;;13.47;;
45420;SDS011;55462;47.042;8.292;2024-03-08T07:16:03;17.83;;;13.87;;
45420;SDS011;55462;47.042;8.292;2024-03-08T07:18:30;15.20;;;12.13;;
45420;SDS011;55462;47.042;8.292;2024-03-08T07:20:55;14.80;;;11.90;;
45420;SDS011;55462;47.042;8.292;2024-03-08T07:23:20;16.97;;;12.63;;
45420;SDS011;55462;47.042;8.292;2024-03-08T07:26:04;19.03;;;12.63;;
45420;SDS011;55462;47.042;8.292;2024-03-08T07:28:30;19.07;;;13.47;;
45420;SDS011;55462;47.042;8.292;2024-03-08T07:30:55;17.23;;;13.53;;
45420;SDS011;55462;47.042;8.292;2024-03-08T07:33:37;17.77;;;12.37;;
45420;SDS011;55462;47.042;8.292;2024-03-08T07:36:03;16.77;;;12.20;;
45420;SDS011;55462;47.042;8.292;2024-03-08T07:38:29;16.17;;;12.17;;
45420;SDS011;55462;47.042;8.292;2024-03-08T07:40:54;16.93;;;13.10;;
45420;SDS011;55462;47.042;8.292;2024-03-08T07:43:21;14.77;;;11.93;;
45420;SDS011;55462;47.042;8.292;2024-03-08T07:45:47;15.07;;;12.17;;
45420;SDS011;55462;47.042;8.292;2024-03-08T07:48:12;14.20;;;10.90;;
45420;SDS011;55462;47.042;8.292;2024-03-08T07:50:38;15.37;;;11.23;;
45420;SDS011;55462;47.042;8.292;2024-03-08T07:53:07;14.33;;;10.93;;
45420;SDS011;55462;47.042;8.292;2024-03-08T07:55:33;12.97;;;11.23;;
45420;SDS011;55462;47.042;8.292;2024-03-08T07:58:00;16.23;;;11.00;;
45420;SDS011;55462;47.042;8.292;2024-03-08T08:00:25;11.90;;;10.70;;
45420;SDS011;55462;47.042;8.292;2024-03-08T08:02:52;15.57;;;12.30;;
45420;SDS011;55462;47.042;8.292;2024-03-08T08:05:20;15.17;;;12.20;;
45420;SDS011;55462;47.042;8.292;2024-03-08T08:07:46;15.67;;;12.37;;
45420;SDS011;55462;47.042;8.292;2024-03-08T08:10:12;14.77;;;11.67;;
45420;SDS011;55462;47.042;8.292;2024-03-08T08:12:49;16.80;;;11.57;;
45420;SDS011;55462;47.042;8.292;2024-03-08T08:15:15;13.30;;;10.97;;
45420;SDS011;55462;47.042;8.292;2024-03-08T08:17:43;16.30;;;9.83;;
45420;SDS011;55462;47.042;8.292;2024-03-08T08:20:10;16.77;;;13.10;;
45420;SDS011;55462;47.042;8.292;2024-03-08T08:22:37;23.43;;;13.43;;
45420;SDS011;55462;47.042;8.292;2024-03-08T08:25:04;23.43;;;16.23;;
45420;SDS011;55462;47.042;8.292;2024-03-08T08:27:29;24.43;;;15.80;;
45420;SDS011;55462;47.042;8.292;2024-03-08T08:29:55;21.97;;;16.30;;
45420;SDS011;55462;47.042;8.292;2024-03-08T08:32:21;25.23;;;15.43;;
45420;SDS011;55462;47.042;8.292;2024-03-08T08:34:46;27.67;;;15.87;;
45420;SDS011;55462;47.042;8.292;2024-03-08T08:37:11;26.07;;;17.30;;
45420;SDS011;55462;47.042;8.292;2024-03-08T08:39:37;26.53;;;17.53;;
45420;SDS011;55462;47.042;8.292;2024-03-08T08:42:03;28.37;;;19.17;;
45420;SDS011;55462;47.042;8.292;2024-03-08T08:44:28;26.73;;;18.67;;
45420;SDS011;55462;47.042;8.292;2024-03-08T08:46:54;27.17;;;18.67;;
45420;SDS011;55462;47.042;8.292;2024-03-08T08:49:19;30.20;;;19.87;;
45420;SDS011;55462;47.042;8.292;2024-03-08T08:51:51;28.70;;;18.20;;
45420;SDS011;55462;47.042;8.292;2024-03-08T08:54:17;27.37;;;18.63;;
45420;SDS011;55462;47.042;8.292;2024-03-08T08:56:42;28.17;;;19.03;;
45420;SDS011;55462;47.042;8.292;2024-03-08T08:59:12;28.97;;;20.27;;
45420;SDS011;55462;47.042;8.292;2024-03-08T09:01:39;29.03;;;19.93;;
45420;SDS011;55462;47.042;8.292;2024-03-08T09:04:05;30.47;;;18.60;;
45420;SDS011;55462;47.042;8.292;2024-03-08T09:06:30;27.03;;;19.73;;
45420;SDS011;55462;47.042;8.292;2024-03-08T09:08:56;27.37;;;19.43;;
45420;SDS011;55462;47.042;8.292;2024-03-08T09:11:21;26.90;;;19.00;;
45420;SDS011;55462;47.042;8.292;2024-03-08T09:13:46;30.83;;;19.60;;
45420;SDS011;55462;47.042;8.292;2024-03-08T09:16:12;27.27;;;17.97;;
45420;SDS011;55462;47.042;8.292;2024-03-08T09:18:37;24.73;;;17.23;;
45420;SDS011;55462;47.042;8.292;2024-03-08T09:21:02;26.70;;;17.60;;
45420;SDS011;55462;47.042;8.292;2024-03-08T09:23:28;25.17;;;17.90;;
45420;SDS011;55462;47.042;8.292;2024-03-08T09:25:58;28.20;;;18.30;;
45420;SDS011;55462;47.042;8.292;2024-03-08T09:28:23;25.77;;;18.43;;
45420;SDS011;55462;47.042;8.292;2024-03-08T09:30:50;25.37;;;17.67;;
45420;SDS011;55462;47.042;8.292;2024-03-08T09:33:15;25.87;;;17.40;;
45420;SDS011;55462;47.042;8.292;2024-03-08T09:35:44;25.70;;;17.37;;
45420;SDS011;55462;47.042;8.292;2024-03-08T09:38:13;22.73;;;16.40;;
45420;SDS011;55462;47.042;8.292;2024-03-08T09:40:41;24.90;;;16.67;;
45420;SDS011;55462;47.042;8.292;2024-03-08T09:43:07;23.93;;;17.07;;
45420;SDS011;55462;47.042;8.292;2024-03-08T09:45:34;22.27;;;16.20;;
45420;SDS011;55462;47.042;8.292;2024-03-08T09:48:04;24.57;;;16.60;;
45420;SDS011;55462;47.042;8.292;2024-03-08T09:50:30;24.93;;;16.80;;
45420;SDS011;55462;47.042;8.292;2024-03-08T09:52:55;21.63;;;16.50;;
45420;SDS011;55462;47.042;8.292;2024-03-08T09:55:22;18.93;;;15.03;;
45420;SDS011;55462;47.042;8.292;2024-03-08T09:57:47;22.03;;;16.20;;
45420;SDS011;55462;47.042;8.292;2024-03-08T10:00:33;23.83;;;16.27;;
45420;SDS011;55462;47.042;8.292;2024-03-08T10:03:01;19.63;;;14.47;;
45420;SDS011;55462;47.042;8.292;2024-03-08T10:05:27;19.90;;;14.93;;
45420;SDS011;55462;47.042;8.292;2024-03-08T10:07:52;23.33;;;16.83;;
45420;SDS011;55462;47.042;8.292;2024-03-08T10:10:18;21.87;;;16.40;;
45420;SDS011;55462;47.042;8.292;2024-03-08T10:12:43;24.67;;;18.17;;
45420;SDS011;55462;47.042;8.292;2024-03-08T10:15:10;21.57;;;18.20;;
45420;SDS011;55462;47.042;8.292;2024-03-08T10:17:37;20.10;;;15.90;;
45420;SDS011;55462;47.042;8.292;2024-03-08T10:20:06;21.07;;;16.43;;
45420;SDS011;55462;47.042;8.292;2024-03-08T10:22:39;22.50;;;19.07;;
45420;SDS011;55462;47.042;8.292;2024-03-08T10:25:07;23.70;;;18.70;;
45420;SDS011;55462;47.042;8.292;2024-03-08T10:27:35;22.90;;;17.73;;
45420;SDS011;55462;47.042;8.292;2024-03-08T10:30:01;20.83;;;16.57;;
45420;SDS011;55462;47.042;8.292;2024-03-08T10:32:26;21.53;;;16.87;;
45420;SDS011;55462;47.042;8.292;2024-03-08T10:34:52;22.23;;;17.63;;
45420;SDS011;55462;47.042;8.292;2024-03-08T10:37:18;22.37;;;16.70;;
45420;SDS011;55462;47.042;8.292;2024-03-08T10:39:49;22.00;;;17.13;;
45420;SDS011;55462;47.042;8.292;2024-03-08T10:42:24;23.97;;;19.13;;
45420;SDS011;55462;47.042;8.292;2024-03-08T10:45:15;26.57;;;20.57;;
45420;SDS011;55462;47.042;8.292;2024-03-08T10:47:41;26.73;;;20.50;;
45420;SDS011;55462;47.042;8.292;2024-03-08T10:50:19;27.23;;;20.37;;
45420;SDS011;55462;47.042;8.292;2024-03-08T10:52:51;24.53;;;19.57;;
45420;SDS011;55462;47.042;8.292;2024-03-08T10:55:17;23.37;;;18.43;;
45420;SDS011;55462;47.042;8.292;2024-03-08T10:58:06;24.23;;;17.50;;
45420;SDS011;55462;47.042;8.292;2024-03-08T11:00:33;25.40;;;18.20;;
45420;SDS011;55462;47.042;8.292;2024-03-08T11:02:58;18.97;;;16.47;;
45420;SDS011;55462;47.042;8.292;2024-03-08T11:08:24;22.10;;;17.80;;
45420;SDS011;55462;47.042;8.292;2024-03-08T11:10:52;19.67;;;16.67;;
45420;SDS011;55462;47.042;8.292;2024-03-08T11:16:07;20.90;;;17.43;;
45420;SDS011;55462;47.042;8.292;2024-03-08T11:18:34;20.03;;;17.83;;
45420;SDS011;55462;47.042;8.292;2024-03-08T11:21:04;19.47;;;16.17;;
45420;SDS011;55462;47.042;8.292;2024-03-08T11:23:37;21.40;;;17.35;;
45420;SDS011;55462;47.042;8.292;2024-03-08T11:26:02;21.23;;;17.50;;
45420;SDS011;55462;47.042;8.292;2024-03-08T11:28:32;20.67;;;17.63;;
45420;SDS011;55462;47.042;8.292;2024-03-08T11:33:26;19.40;;;15.93;;
45420;SDS011;55462;47.042;8.292;2024-03-08T11:36:02;18.97;;;16.27;;
45420;SDS011;55462;47.042;8.292;2024-03-08T11:38:41;18.80;;;16.70;;
45420;SDS011;55462;47.042;8.292;2024-03-08T11:41:09;18.10;;;15.70;;
45420;SDS011;55462;47.042;8.292;2024-03-08T11:43:37;20.88;;;17.17;;
45420;SDS011;55462;47.042;8.292;2024-03-08T11:46:08;20.97;;;18.47;;
45420;SDS011;55462;47.042;8.292;2024-03-08T11:48:34;19.43;;;17.33;;
45420;SDS011;55462;47.042;8.292;2024-03-08T11:51:01;19.75;;;16.77;;
45420;SDS011;55462;47.042;8.292;2024-03-08T11:53:26;21.20;;;17.05;;
45420;SDS011;55462;47.042;8.292;2024-03-08T11:55:52;16.60;;;14.57;;
45420;SDS011;55462;47.042;8.292;2024-03-08T11:58:17;19.58;;;15.77;;
45420;SDS011;55462;47.042;8.292;2024-03-08T12:00:43;17.92;;;16.02;;
45420;SDS011;55462;47.042;8.292;2024-03-08T12:03:11;18.65;;;16.40;;
45420;SDS011;55462;47.042;8.292;2024-03-08T12:05:37;19.73;;;16.85;;
45420;SDS011;55462;47.042;8.292;2024-03-08T12:08:03;18.73;;;16.75;;
45420;SDS011;55462;47.042;8.292;2024-03-08T12:10:31;19.50;;;16.55;;
45420;SDS011;55462;47.042;8.292;2024-03-08T12:12:57;19.25;;;16.95;;
45420;SDS011;55462;47.042;8.292;2024-03-08T12:15:28;20.40;;;16.70;;
45420;SDS011;55462;47.042;8.292;2024-03-08T12:17:54;19.25;;;17.10;;
45420;SDS011;55462;47.042;8.292;2024-03-08T12:20:23;20.27;;;17.87;;
45420;SDS011;55462;47.042;8.292;2024-03-08T12:22:51;23.92;;;18.83;;
45420;SDS011;55462;47.042;8.292;2024-03-08T12:25:18;20.23;;;17.33;;
45420;SDS011;55462;47.042;8.292;2024-03-08T12:27:43;22.67;;;18.30;;
45420;SDS011;55462;47.042;8.292;2024-03-08T12:30:18;18.52;;;16.52;;
45420;SDS011;55462;47.042;8.292;2024-03-08T12:32:48;18.95;;;16.95;;
45420;SDS011;55462;47.042;8.292;2024-03-08T12:35:14;19.73;;;17.15;;
45420;SDS011;55462;47.042;8.292;2024-03-08T12:37:39;19.88;;;17.00;;
45420;SDS011;55462;47.042;8.292;2024-03-08T12:40:08;19.42;;;17.13;;
45420;SDS011;55462;47.042;8.292;2024-03-08T12:42:34;20.85;;;18.13;;
45420;SDS011;55462;47.042;8.292;2024-03-08T12:45:00;18.55;;;16.77;;
45420;SDS011;55462;47.042;8.292;2024-03-08T12:47:26;19.20;;;16.48;;
45420;SDS011;55462;47.042;8.292;2024-03-08T12:49:53;20.45;;;17.17;;
45420;SDS011;55462;47.042;8.292;2024-03-08T12:52:19;18.15;;;16.25;;
45420;SDS011;55462;47.042;8.292;2024-03-08T12:54:44;17.02;;;15.25;;
45420;SDS011;55462;47.042;8.292;2024-03-08T12:57:09;17.92;;;16.00;;
45420;SDS011;55462;47.042;8.292;2024-03-08T12:59:35;19.02;;;16.10;;
45420;SDS011;55462;47.042;8.292;2024-03-08T13:02:00;18.30;;;16.30;;
45420;SDS011;55462;47.042;8.292;2024-03-08T13:04:25;18.02;;;16.08;;
45420;SDS011;55462;47.042;8.292;2024-03-08T13:06:51;17.35;;;15.40;;
45420;SDS011;55462;47.042;8.292;2024-03-08T13:09:16;18.45;;;16.58;;
45420;SDS011;55462;47.042;8.292;2024-03-08T13:11:44;18.48;;;16.58;;
45420;SDS011;55462;47.042;8.292;2024-03-08T13:14:10;17.33;;;15.45;;
45420;SDS011;55462;47.042;8.292;2024-03-08T13:16:35;17.10;;;15.35;;
45420;SDS011;55462;47.042;8.292;2024-03-08T13:19:01;17.80;;;14.82;;
45420;SDS011;55462;47.042;8.292;2024-03-08T13:21:26;17.77;;;14.10;;
45420;SDS011;55462;47.042;8.292;2024-03-08T13:23:52;16.80;;;14.40;;
45420;SDS011;55462;47.042;8.292;2024-03-08T13:26:18;15.00;;;13.40;;
45420;SDS011;55462;47.042;8.292;2024-03-08T13:28:44;15.63;;;14.00;;
45420;SDS011;55462;47.042;8.292;2024-03-08T13:31:10;15.48;;;13.85;;
45420;SDS011;55462;47.042;8.292;2024-03-08T13:33:36;16.75;;;14.93;;
45420;SDS011;55462;47.042;8.292;2024-03-08T13:36:02;15.48;;;13.90;;
45420;SDS011;55462;47.042;8.292;2024-03-08T13:38:29;18.92;;;13.77;;
45420;SDS011;55462;47.042;8.292;2024-03-08T13:40:57;15.85;;;13.88;;
45420;SDS011;55462;47.042;8.292;2024-03-08T13:43:22;16.35;;;14.30;;
45420;SDS011;55462;47.042;8.292;2024-03-08T13:45:47;14.50;;;12.88;;
45420;SDS011;55462;47.042;8.292;2024-03-08T13:48:14;15.43;;;13.07;;
45420;SDS011;55462;47.042;8.292;2024-03-08T13:50:40;14.60;;;13.10;;
45420;SDS011;55462;47.042;8.292;2024-03-08T13:53:05;14.98;;;13.45;;
45420;SDS011;55462;47.042;8.292;2024-03-08T13:55:30;15.35;;;12.80;;
45420;SDS011;55462;47.042;8.292;2024-03-08T13:57:56;14.95;;;13.45;;
45420;SDS011;55462;47.042;8.292;2024-03-08T14:00:22;14.35;;;12.90;;
45420;SDS011;55462;47.042;8.292;2024-03-08T14:02:49;14.48;;;12.98;;
45420;SDS011;55462;47.042;8.292;2024-03-08T14:05:15;14.55;;;13.13;;
45420;SDS011;55462;47.042;8.292;2024-03-08T14:07:41;14.07;;;12.68;;
45420;SDS011;55462;47.042;8.292;2024-03-08T14:10:06;14.02;;;12.63;;
45420;SDS011;55462;47.042;8.292;2024-03-08T14:12:32;16.52;;;13.13;;
45420;SDS011;55462;47.042;8.292;2024-03-08T14:14:58;14.73;;;12.85;;
45420;SDS011;55462;47.042;8.292;2024-03-08T14:17:24;16.13;;;14.05;;
45420;SDS011;55462;47.042;8.292;2024-03-08T14:19:52;13.88;;;12.25;;
45420;SDS011;55462;47.042;8.292;2024-03-08T14:22:17;13.45;;;12.10;;
45420;SDS011;55462;47.042;8.292;2024-03-08T14:24:43;14.18;;;12.77;;
45420;SDS011;55462;47.042;8.292;2024-03-08T14:27:09;13.77;;;12.38;;
45420;SDS011;55462;47.042;8.292;2024-03-08T14:29:35;13.93;;;12.52;;
45420;SDS011;55462;47.042;8.292;2024-03-08T14:32:01;14.95;;;13.43;;
45420;SDS011;55462;47.042;8.292;2024-03-08T14:34:28;13.68;;;12.18;;